sensor_id;sensor_type;location;lat;lon;timestamp;temperature;humidity
39621;DHT22;25309;48.686;9.170;2022-12-08T00:02:04;3.20;99.90
39621;DHT22;25309;48.686;9.170;2022-12-08T00:04:31;3.20;99.90
39621;DHT22;25309;48.686;9.170;2022-12-08T00:07:19;3.10;99.90
39621;DHT22;25309;48.686;9.170;2022-12-08T00:10:07;3.10;99.90
39621;DHT22;25309;48.686;9.170;2022-12-08T00:12:54;3.10;99.90
39621;DHT22;25309;48.686;9.170;2022-12-08T00:15:21;3.00;99.90
39621;DHT22;25309;48.686;9.170;2022-12-08T00:17:48;2.90;99.90
39621;DHT22;25309;48.686;9.170;2022-12-08T00:20:15;2.90;99.90
39621;DHT22;25309;48.686;9.170;2022-12-08T00:22:43;2.80;99.90
39621;DHT22;25309;48.686;9.170;2022-12-08T00:25:10;2.80;99.90
39621;DHT22;25309;48.686;9.170;2022-12-08T00:27:37;2.70;99.90
39621;DHT22;25309;48.686;9.170;2022-12-08T00:30:05;2.80;99.90
39621;DHT22;25309;48.686;9.170;2022-12-08T00:32:32;2.70;99.90
39621;DHT22;25309;48.686;9.170;2022-12-08T00:34:59;2.70;99.90
39621;DHT22;25309;48.686;9.170;2022-12-08T00:37:27;2.70;99.90
39621;DHT22;25309;48.686;9.170;2022-12-08T00:39:55;2.70;99.90
39621;DHT22;25309;48.686;9.170;2022-12-08T00:42:22;2.70;99.90
39621;DHT22;25309;48.686;9.170;2022-12-08T00:44:49;2.70;99.90
39621;DHT22;25309;48.686;9.170;2022-12-08T00:47:16;2.70;99.90
39621;DHT22;25309;48.686;9.170;2022-12-08T00:49:50;2.70;99.90
39621;DHT22;25309;48.686;9.170;2022-12-08T00:52:17;2.50;99.90
39621;DHT22;25309;48.686;9.170;2022-12-08T00:54:45;2.50;99.90
39621;DHT22;25309;48.686;9.170;2022-12-08T00:57:13;2.40;99.90
39621;DHT22;25309;48.686;9.170;2022-12-08T00:59:40;2.30;99.90
39621;DHT22;25309;48.686;9.170;2022-12-08T01:02:07;2.30;99.90
39621;DHT22;25309;48.686;9.170;2022-12-08T01:04:35;2.20;99.90
39621;DHT22;25309;48.686;9.170;2022-12-08T01:07:02;2.10;99.90
39621;DHT22;25309;48.686;9.170;2022-12-08T01:09:29;2.10;99.90
39621;DHT22;25309;48.686;9.170;2022-12-08T01:11:56;2.00;99.90
39621;DHT22;25309;48.686;9.170;2022-12-08T01:14:24;2.00;99.90
39621;DHT22;25309;48.686;9.170;2022-12-08T01:16:51;1.90;99.90
39621;DHT22;25309;48.686;9.170;2022-12-08T01:19:19;2.00;99.90
39621;DHT22;25309;48.686;9.170;2022-12-08T01:21:46;2.10;99.90
39621;DHT22;25309;48.686;9.170;2022-12-08T01:24:15;2.10;99.90
39621;DHT22;25309;48.686;9.170;2022-12-08T01:26:43;2.10;99.90
39621;DHT22;25309;48.686;9.170;2022-12-08T01:29:10;2.00;99.90
39621;DHT22;25309;48.686;9.170;2022-12-08T01:31:39;2.00;99.90
39621;DHT22;25309;48.686;9.170;2022-12-08T01:34:06;2.00;99.90
39621;DHT22;25309;48.686;9.170;2022-12-08T01:36:34;2.00;99.90
39621;DHT22;25309;48.686;9.170;2022-12-08T01:39:07;1.90;99.90
39621;DHT22;25309;48.686;9.170;2022-12-08T01:41:36;1.90;99.90
39621;DHT22;25309;48.686;9.170;2022-12-08T01:47:10;1.90;99.90
39621;DHT22;25309;48.686;9.170;2022-12-08T01:49:37;1.90;99.90
39621;DHT22;25309;48.686;9.170;2022-12-08T01:52:10;1.90;99.90
39621;DHT22;25309;48.686;9.170;2022-12-08T01:54:42;2.00;99.90
39621;DHT22;25309;48.686;9.170;2022-12-08T01:57:11;2.00;99.90
39621;DHT22;25309;48.686;9.170;2022-12-08T01:59:43;2.10;99.90
39621;DHT22;25309;48.686;9.170;2022-12-08T02:02:13;2.00;99.90
39621;DHT22;25309;48.686;9.170;2022-12-08T02:04:41;2.00;99.90
39621;DHT22;25309;48.686;9.170;2022-12-08T02:07:09;2.00;99.90
39621;DHT22;25309;48.686;9.170;2022-12-08T02:09:39;2.00;99.90
39621;DHT22;25309;48.686;9.170;2022-12-08T02:12:08;2.00;99.90
39621;DHT22;25309;48.686;9.170;2022-12-08T02:14:35;2.00;99.90
39621;DHT22;25309;48.686;9.170;2022-12-08T02:17:08;1.90;99.90
39621;DHT22;25309;48.686;9.170;2022-12-08T02:20:11;1.80;99.90
39621;DHT22;25309;48.686;9.170;2022-12-08T02:22:45;1.60;99.90
39621;DHT22;25309;48.686;9.170;2022-12-08T02:25:17;1.50;99.90
39621;DHT22;25309;48.686;9.170;2022-12-08T02:27:57;1.50;99.90
39621;DHT22;25309;48.686;9.170;2022-12-08T02:30:33;1.40;99.90
39621;DHT22;25309;48.686;9.170;2022-12-08T02:36:22;1.40;99.90
39621;DHT22;25309;48.686;9.170;2022-12-08T02:38:59;1.30;99.90
39621;DHT22;25309;48.686;9.170;2022-12-08T02:41:35;1.30;99.90
39621;DHT22;25309;48.686;9.170;2022-12-08T02:44:07;1.20;99.90
39621;DHT22;25309;48.686;9.170;2022-12-08T02:46:42;1.20;99.90
39621;DHT22;25309;48.686;9.170;2022-12-08T02:49:10;1.20;99.90
39621;DHT22;25309;48.686;9.170;2022-12-08T02:51:41;1.20;99.90
39621;DHT22;25309;48.686;9.170;2022-12-08T02:54:08;1.20;99.90
39621;DHT22;25309;48.686;9.170;2022-12-08T02:59:43;1.20;99.90
39621;DHT22;25309;48.686;9.170;2022-12-08T03:02:26;1.20;99.90
39621;DHT22;25309;48.686;9.170;2022-12-08T03:05:04;1.30;99.90
39621;DHT22;25309;48.686;9.170;2022-12-08T03:07:37;1.30;99.90
39621;DHT22;25309;48.686;9.170;2022-12-08T03:10:09;1.30;99.90
39621;DHT22;25309;48.686;9.170;2022-12-08T03:12:41;1.30;99.90
39621;DHT22;25309;48.686;9.170;2022-12-08T03:15:12;1.30;99.90
39621;DHT22;25309;48.686;9.170;2022-12-08T03:17:42;1.40;99.90
39621;DHT22;25309;48.686;9.170;2022-12-08T03:20:16;1.30;99.90
39621;DHT22;25309;48.686;9.170;2022-12-08T03:22:48;1.30;99.90
39621;DHT22;25309;48.686;9.170;2022-12-08T03:25:18;1.30;99.90
39621;DHT22;25309;48.686;9.170;2022-12-08T03:27:47;1.40;99.90
39621;DHT22;25309;48.686;9.170;2022-12-08T03:30:14;1.40;99.90
39621;DHT22;25309;48.686;9.170;2022-12-08T03:32:45;1.30;99.90
39621;DHT22;25309;48.686;9.170;2022-12-08T03:35:16;1.40;99.90
39621;DHT22;25309;48.686;9.170;2022-12-08T03:37:43;1.40;99.90
39621;DHT22;25309;48.686;9.170;2022-12-08T03:40:14;1.40;99.90
39621;DHT22;25309;48.686;9.170;2022-12-08T03:42:41;1.40;99.90
39621;DHT22;25309;48.686;9.170;2022-12-08T03:45:09;1.40;99.90
39621;DHT22;25309;48.686;9.170;2022-12-08T03:47:36;1.40;99.90
39621;DHT22;25309;48.686;9.170;2022-12-08T03:50:04;1.30;99.90
39621;DHT22;25309;48.686;9.170;2022-12-08T03:52:31;1.30;99.90
39621;DHT22;25309;48.686;9.170;2022-12-08T03:54:58;1.30;99.90
39621;DHT22;25309;48.686;9.170;2022-12-08T03:57:26;1.20;99.90
39621;DHT22;25309;48.686;9.170;2022-12-08T03:59:53;1.10;99.90
39621;DHT22;25309;48.686;9.170;2022-12-08T04:02:20;1.20;99.90
39621;DHT22;25309;48.686;9.170;2022-12-08T04:04:47;1.10;99.90
39621;DHT22;25309;48.686;9.170;2022-12-08T04:07:14;1.20;99.90
39621;DHT22;25309;48.686;9.170;2022-12-08T04:09:41;1.20;99.90
39621;DHT22;25309;48.686;9.170;2022-12-08T04:12:08;1.20;99.90
39621;DHT22;25309;48.686;9.170;2022-12-08T04:14:37;1.10;99.90
39621;DHT22;25309;48.686;9.170;2022-12-08T04:17:03;1.10;99.90
39621;DHT22;25309;48.686;9.170;2022-12-08T04:19:30;1.10;99.90
39621;DHT22;25309;48.686;9.170;2022-12-08T04:21:57;1.10;99.90
39621;DHT22;25309;48.686;9.170;2022-12-08T04:24:24;1.10;99.90
39621;DHT22;25309;48.686;9.170;2022-12-08T04:26:51;1.10;99.90
39621;DHT22;25309;48.686;9.170;2022-12-08T04:29:18;1.10;99.90
39621;DHT22;25309;48.686;9.170;2022-12-08T04:31:47;1.10;99.90
39621;DHT22;25309;48.686;9.170;2022-12-08T04:34:14;1.10;99.90
39621;DHT22;25309;48.686;9.170;2022-12-08T04:36:41;1.00;99.90
39621;DHT22;25309;48.686;9.170;2022-12-08T04:39:08;1.00;99.90
39621;DHT22;25309;48.686;9.170;2022-12-08T04:41:35;1.00;99.90
39621;DHT22;25309;48.686;9.170;2022-12-08T04:44:02;1.00;99.90
39621;DHT22;25309;48.686;9.170;2022-12-08T04:46:28;1.00;99.90
39621;DHT22;25309;48.686;9.170;2022-12-08T04:48:57;1.00;99.90
39621;DHT22;25309;48.686;9.170;2022-12-08T04:51:24;1.00;99.90
39621;DHT22;25309;48.686;9.170;2022-12-08T04:53:53;1.00;99.90
39621;DHT22;25309;48.686;9.170;2022-12-08T04:56:20;1.00;99.90
39621;DHT22;25309;48.686;9.170;2022-12-08T04:58:47;1.10;99.90
39621;DHT22;25309;48.686;9.170;2022-12-08T05:01:14;1.00;99.90
39621;DHT22;25309;48.686;9.170;2022-12-08T05:03:41;1.00;99.90
39621;DHT22;25309;48.686;9.170;2022-12-08T05:06:11;0.90;99.90
39621;DHT22;25309;48.686;9.170;2022-12-08T05:08:39;0.90;99.90
39621;DHT22;25309;48.686;9.170;2022-12-08T05:11:08;0.90;99.90
39621;DHT22;25309;48.686;9.170;2022-12-08T05:13:35;0.80;99.90
39621;DHT22;25309;48.686;9.170;2022-12-08T05:16:04;0.80;99.90
39621;DHT22;25309;48.686;9.170;2022-12-08T05:18:32;0.90;99.90
39621;DHT22;25309;48.686;9.170;2022-12-08T05:20:59;0.90;99.90
39621;DHT22;25309;48.686;9.170;2022-12-08T05:23:27;0.90;99.90
39621;DHT22;25309;48.686;9.170;2022-12-08T05:25:54;0.90;99.90
39621;DHT22;25309;48.686;9.170;2022-12-08T05:28:22;0.90;99.90
39621;DHT22;25309;48.686;9.170;2022-12-08T05:31:09;0.90;99.90
39621;DHT22;25309;48.686;9.170;2022-12-08T05:33:36;0.80;99.90
39621;DHT22;25309;48.686;9.170;2022-12-08T05:36:03;0.70;99.90
39621;DHT22;25309;48.686;9.170;2022-12-08T05:38:31;0.60;99.90
39621;DHT22;25309;48.686;9.170;2022-12-08T05:40:58;0.60;99.90
39621;DHT22;25309;48.686;9.170;2022-12-08T05:43:26;0.60;99.90
39621;DHT22;25309;48.686;9.170;2022-12-08T05:45:53;0.60;99.90
39621;DHT22;25309;48.686;9.170;2022-12-08T05:48:20;0.60;99.90
39621;DHT22;25309;48.686;9.170;2022-12-08T05:50:48;0.60;99.90
39621;DHT22;25309;48.686;9.170;2022-12-08T05:53:15;0.60;99.90
39621;DHT22;25309;48.686;9.170;2022-12-08T05:55:44;0.60;99.90
39621;DHT22;25309;48.686;9.170;2022-12-08T05:58:12;0.50;99.90
39621;DHT22;25309;48.686;9.170;2022-12-08T06:00:39;0.60;99.90
39621;DHT22;25309;48.686;9.170;2022-12-08T06:03:06;0.50;99.90
39621;DHT22;25309;48.686;9.170;2022-12-08T06:05:34;0.50;99.90
39621;DHT22;25309;48.686;9.170;2022-12-08T06:08:01;0.60;99.90
39621;DHT22;25309;48.686;9.170;2022-12-08T06:10:28;0.60;99.90
39621;DHT22;25309;48.686;9.170;2022-12-08T06:12:57;0.60;99.90
39621;DHT22;25309;48.686;9.170;2022-12-08T06:15:24;0.60;99.90
39621;DHT22;25309;48.686;9.170;2022-12-08T06:17:51;0.60;99.90
39621;DHT22;25309;48.686;9.170;2022-12-08T06:20:18;0.70;99.90
39621;DHT22;25309;48.686;9.170;2022-12-08T06:22:45;0.70;99.90
39621;DHT22;25309;48.686;9.170;2022-12-08T06:25:12;0.60;99.90
39621;DHT22;25309;48.686;9.170;2022-12-08T06:27:39;0.60;99.90
39621;DHT22;25309;48.686;9.170;2022-12-08T06:30:08;0.60;99.90
39621;DHT22;25309;48.686;9.170;2022-12-08T06:32:35;0.60;99.90
39621;DHT22;25309;48.686;9.170;2022-12-08T06:35:02;0.50;99.90
39621;DHT22;25309;48.686;9.170;2022-12-08T06:37:29;0.50;99.90
39621;DHT22;25309;48.686;9.170;2022-12-08T06:39:56;0.50;99.90
39621;DHT22;25309;48.686;9.170;2022-12-08T06:42:23;0.40;99.90
39621;DHT22;25309;48.686;9.170;2022-12-08T06:45:10;0.40;99.90
39621;DHT22;25309;48.686;9.170;2022-12-08T06:47:38;0.40;99.90
39621;DHT22;25309;48.686;9.170;2022-12-08T06:50:06;0.40;99.90
39621;DHT22;25309;48.686;9.170;2022-12-08T06:52:33;0.30;99.90
39621;DHT22;25309;48.686;9.170;2022-12-08T06:55:11;0.20;99.90
39621;DHT22;25309;48.686;9.170;2022-12-08T06:57:58;0.10;99.90
39621;DHT22;25309;48.686;9.170;2022-12-08T07:00:26;0.10;99.90
39621;DHT22;25309;48.686;9.170;2022-12-08T07:02:53;0.20;99.90
39621;DHT22;25309;48.686;9.170;2022-12-08T07:05:20;0.20;99.90
39621;DHT22;25309;48.686;9.170;2022-12-08T07:07:47;0.30;99.90
39621;DHT22;25309;48.686;9.170;2022-12-08T07:10:14;0.30;99.90
39621;DHT22;25309;48.686;9.170;2022-12-08T07:12:41;0.40;99.90
39621;DHT22;25309;48.686;9.170;2022-12-08T07:15:09;0.40;99.90
39621;DHT22;25309;48.686;9.170;2022-12-08T07:17:37;0.40;99.90
39621;DHT22;25309;48.686;9.170;2022-12-08T07:20:06;0.40;99.90
39621;DHT22;25309;48.686;9.170;2022-12-08T07:22:33;0.50;99.90
39621;DHT22;25309;48.686;9.170;2022-12-08T07:25:00;0.40;99.90
39621;DHT22;25309;48.686;9.170;2022-12-08T07:27:27;0.40;99.90
39621;DHT22;25309;48.686;9.170;2022-12-08T07:29:54;0.30;99.90
39621;DHT22;25309;48.686;9.170;2022-12-08T07:32:21;0.40;99.90
39621;DHT22;25309;48.686;9.170;2022-12-08T07:34:49;0.40;99.90
39621;DHT22;25309;48.686;9.170;2022-12-08T07:37:16;0.40;99.90
39621;DHT22;25309;48.686;9.170;2022-12-08T07:39:43;0.40;99.90
39621;DHT22;25309;48.686;9.170;2022-12-08T07:42:10;0.50;99.90
39621;DHT22;25309;48.686;9.170;2022-12-08T07:44:37;0.60;99.90
39621;DHT22;25309;48.686;9.170;2022-12-08T07:47:04;0.60;99.90
39621;DHT22;25309;48.686;9.170;2022-12-08T07:49:31;0.70;99.90
39621;DHT22;25309;48.686;9.170;2022-12-08T07:52:00;0.80;99.90
39621;DHT22;25309;48.686;9.170;2022-12-08T07:54:27;0.80;99.90
39621;DHT22;25309;48.686;9.170;2022-12-08T07:56:56;0.80;99.90
39621;DHT22;25309;48.686;9.170;2022-12-08T07:59:23;0.80;99.90
39621;DHT22;25309;48.686;9.170;2022-12-08T08:01:50;0.80;99.90
39621;DHT22;25309;48.686;9.170;2022-12-08T08:04:37;0.80;99.90
39621;DHT22;25309;48.686;9.170;2022-12-08T08:07:05;0.80;99.90
39621;DHT22;25309;48.686;9.170;2022-12-08T08:09:33;0.80;99.90
39621;DHT22;25309;48.686;9.170;2022-12-08T08:12:00;0.80;99.90
39621;DHT22;25309;48.686;9.170;2022-12-08T08:14:47;0.80;99.90
39621;DHT22;25309;48.686;9.170;2022-12-08T08:17:14;0.70;99.90
39621;DHT22;25309;48.686;9.170;2022-12-08T08:19:41;0.70;99.90
39621;DHT22;25309;48.686;9.170;2022-12-08T08:22:09;0.60;99.90
39621;DHT22;25309;48.686;9.170;2022-12-08T08:24:36;0.60;99.90
39621;DHT22;25309;48.686;9.170;2022-12-08T08:27:10;0.60;99.90
39621;DHT22;25309;48.686;9.170;2022-12-08T08:29:37;0.70;99.90
39621;DHT22;25309;48.686;9.170;2022-12-08T08:32:04;0.80;99.90
39621;DHT22;25309;48.686;9.170;2022-12-08T08:34:31;0.80;99.90
39621;DHT22;25309;48.686;9.170;2022-12-08T08:36:58;0.90;99.90
39621;DHT22;25309;48.686;9.170;2022-12-08T08:39:26;1.00;99.90
39621;DHT22;25309;48.686;9.170;2022-12-08T08:41:55;1.00;99.90
39621;DHT22;25309;48.686;9.170;2022-12-08T08:44:22;1.00;99.90
39621;DHT22;25309;48.686;9.170;2022-12-08T08:46:49;0.90;99.90
39621;DHT22;25309;48.686;9.170;2022-12-08T08:49:16;0.90;99.90
39621;DHT22;25309;48.686;9.170;2022-12-08T08:51:44;1.00;99.90
39621;DHT22;25309;48.686;9.170;2022-12-08T08:54:11;1.00;99.90
39621;DHT22;25309;48.686;9.170;2022-12-08T08:56:39;1.10;99.90
39621;DHT22;25309;48.686;9.170;2022-12-08T08:59:07;1.10;99.90
39621;DHT22;25309;48.686;9.170;2022-12-08T09:01:35;1.20;99.90
39621;DHT22;25309;48.686;9.170;2022-12-08T09:04:02;1.20;99.90
39621;DHT22;25309;48.686;9.170;2022-12-08T09:06:29;1.20;99.90
39621;DHT22;25309;48.686;9.170;2022-12-08T09:08:56;1.30;99.90
39621;DHT22;25309;48.686;9.170;2022-12-08T09:11:23;1.40;99.90
39621;DHT22;25309;48.686;9.170;2022-12-08T09:13:52;1.40;99.90
39621;DHT22;25309;48.686;9.170;2022-12-08T09:16:20;1.50;99.90
39621;DHT22;25309;48.686;9.170;2022-12-08T09:18:47;1.60;99.90
39621;DHT22;25309;48.686;9.170;2022-12-08T09:21:17;1.70;99.90
39621;DHT22;25309;48.686;9.170;2022-12-08T09:23:49;2.00;99.90
39621;DHT22;25309;48.686;9.170;2022-12-08T09:26:16;2.40;99.90
39621;DHT22;25309;48.686;9.170;2022-12-08T09:28:43;2.90;99.90
39621;DHT22;25309;48.686;9.170;2022-12-08T09:31:16;3.30;99.90
39621;DHT22;25309;48.686;9.170;2022-12-08T09:33:44;3.50;99.90
39621;DHT22;25309;48.686;9.170;2022-12-08T09:36:11;3.80;99.90
39621;DHT22;25309;48.686;9.170;2022-12-08T09:38:39;4.10;99.90
39621;DHT22;25309;48.686;9.170;2022-12-08T09:41:13;4.40;99.90
39621;DHT22;25309;48.686;9.170;2022-12-08T09:43:55;4.60;99.90
39621;DHT22;25309;48.686;9.170;2022-12-08T09:46:28;4.80;99.90
39621;DHT22;25309;48.686;9.170;2022-12-08T09:48:58;5.10;99.90
39621;DHT22;25309;48.686;9.170;2022-12-08T09:51:29;5.30;99.90
39621;DHT22;25309;48.686;9.170;2022-12-08T09:53:59;5.50;99.90
39621;DHT22;25309;48.686;9.170;2022-12-08T09:56:32;5.80;99.90
39621;DHT22;25309;48.686;9.170;2022-12-08T09:59:04;6.10;99.90
39621;DHT22;25309;48.686;9.170;2022-12-08T10:01:35;6.30;99.90
39621;DHT22;25309;48.686;9.170;2022-12-08T10:04:21;6.40;99.90
39621;DHT22;25309;48.686;9.170;2022-12-08T10:06:58;6.50;99.90
39621;DHT22;25309;48.686;9.170;2022-12-08T10:09:34;6.60;99.90
39621;DHT22;25309;48.686;9.170;2022-12-08T10:12:11;6.70;99.90
39621;DHT22;25309;48.686;9.170;2022-12-08T10:14:42;6.90;99.90
39621;DHT22;25309;48.686;9.170;2022-12-08T10:17:16;7.00;99.90
39621;DHT22;25309;48.686;9.170;2022-12-08T10:19:43;7.20;99.90
39621;DHT22;25309;48.686;9.170;2022-12-08T10:22:18;7.30;99.90
39621;DHT22;25309;48.686;9.170;2022-12-08T10:24:53;7.60;99.90
39621;DHT22;25309;48.686;9.170;2022-12-08T10:27:24;7.70;99.90
39621;DHT22;25309;48.686;9.170;2022-12-08T10:29:51;7.70;99.90
39621;DHT22;25309;48.686;9.170;2022-12-08T10:32:21;7.50;99.90
39621;DHT22;25309;48.686;9.170;2022-12-08T10:35:04;7.50;99.90
39621;DHT22;25309;48.686;9.170;2022-12-08T10:37:31;7.40;99.90
39621;DHT22;25309;48.686;9.170;2022-12-08T10:39:59;7.40;99.90
39621;DHT22;25309;48.686;9.170;2022-12-08T10:42:34;7.50;99.90
39621;DHT22;25309;48.686;9.170;2022-12-08T10:45:16;7.70;99.90
39621;DHT22;25309;48.686;9.170;2022-12-08T10:47:54;7.70;99.90
39621;DHT22;25309;48.686;9.170;2022-12-08T10:50:28;7.90;99.90
39621;DHT22;25309;48.686;9.170;2022-12-08T10:52:57;7.90;99.90
39621;DHT22;25309;48.686;9.170;2022-12-08T10:55:24;8.10;99.90
39621;DHT22;25309;48.686;9.170;2022-12-08T10:57:51;8.00;99.90
39621;DHT22;25309;48.686;9.170;2022-12-08T11:00:20;7.90;99.90
39621;DHT22;25309;48.686;9.170;2022-12-08T11:02:57;7.80;99.90
39621;DHT22;25309;48.686;9.170;2022-12-08T11:05:29;7.80;99.90
39621;DHT22;25309;48.686;9.170;2022-12-08T11:07:57;8.00;99.90
39621;DHT22;25309;48.686;9.170;2022-12-08T11:10:33;8.20;99.90
39621;DHT22;25309;48.686;9.170;2022-12-08T11:13:01;8.10;99.90
39621;DHT22;25309;48.686;9.170;2022-12-08T11:15:37;8.10;99.90
39621;DHT22;25309;48.686;9.170;2022-12-08T11:18:09;8.20;99.90
39621;DHT22;25309;48.686;9.170;2022-12-08T11:20:45;8.30;99.90
39621;DHT22;25309;48.686;9.170;2022-12-08T11:23:19;8.30;99.10
39621;DHT22;25309;48.686;9.170;2022-12-08T11:25:47;8.10;99.60
39621;DHT22;25309;48.686;9.170;2022-12-08T11:28:18;8.00;99.90
39621;DHT22;25309;48.686;9.170;2022-12-08T11:30:53;8.00;99.90
39621;DHT22;25309;48.686;9.170;2022-12-08T11:33:25;8.20;99.90
39621;DHT22;25309;48.686;9.170;2022-12-08T11:35:58;8.30;99.90
39621;DHT22;25309;48.686;9.170;2022-12-08T11:38:27;8.40;99.80
39621;DHT22;25309;48.686;9.170;2022-12-08T11:40:57;8.30;98.60
39621;DHT22;25309;48.686;9.170;2022-12-08T11:43:29;8.20;98.70
39621;DHT22;25309;48.686;9.170;2022-12-08T11:46:07;8.10;98.70
39621;DHT22;25309;48.686;9.170;2022-12-08T11:48:39;7.90;99.00
39621;DHT22;25309;48.686;9.170;2022-12-08T11:51:12;7.70;99.40
39621;DHT22;25309;48.686;9.170;2022-12-08T11:53:43;7.50;99.10
39621;DHT22;25309;48.686;9.170;2022-12-08T11:56:18;7.40;99.50
39621;DHT22;25309;48.686;9.170;2022-12-08T11:58:48;7.20;99.20
39621;DHT22;25309;48.686;9.170;2022-12-08T12:01:19;7.10;99.40
39621;DHT22;25309;48.686;9.170;2022-12-08T12:03:54;7.00;99.90
39621;DHT22;25309;48.686;9.170;2022-12-08T12:06:49;7.00;99.90
39621;DHT22;25309;48.686;9.170;2022-12-08T12:09:29;7.10;99.90
39621;DHT22;25309;48.686;9.170;2022-12-08T12:12:05;7.30;99.60
39621;DHT22;25309;48.686;9.170;2022-12-08T12:15:15;7.30;99.60
39621;DHT22;25309;48.686;9.170;2022-12-08T12:17:47;7.50;99.80
39621;DHT22;25309;48.686;9.170;2022-12-08T12:20:22;7.70;99.40
39621;DHT22;25309;48.686;9.170;2022-12-08T12:22:54;7.80;98.60
39621;DHT22;25309;48.686;9.170;2022-12-08T12:25:24;7.90;98.60
39621;DHT22;25309;48.686;9.170;2022-12-08T12:27:56;8.00;98.60
39621;DHT22;25309;48.686;9.170;2022-12-08T12:30:26;8.20;98.40
39621;DHT22;25309;48.686;9.170;2022-12-08T12:32:55;8.30;97.90
39621;DHT22;25309;48.686;9.170;2022-12-08T12:35:30;8.20;97.60
39621;DHT22;25309;48.686;9.170;2022-12-08T12:38:02;8.20;98.00
39621;DHT22;25309;48.686;9.170;2022-12-08T12:40:37;8.20;98.00
39621;DHT22;25309;48.686;9.170;2022-12-08T12:43:13;8.20;97.80
39621;DHT22;25309;48.686;9.170;2022-12-08T12:45:49;8.30;97.90
39621;DHT22;25309;48.686;9.170;2022-12-08T12:48:36;8.60;97.40
39621;DHT22;25309;48.686;9.170;2022-12-08T12:51:34;8.70;97.20
39621;DHT22;25309;48.686;9.170;2022-12-08T12:54:18;8.70;97.00
39621;DHT22;25309;48.686;9.170;2022-12-08T12:56:48;8.70;97.30
39621;DHT22;25309;48.686;9.170;2022-12-08T12:59:40;8.70;97.00
39621;DHT22;25309;48.686;9.170;2022-12-08T13:02:23;8.60;97.00
39621;DHT22;25309;48.686;9.170;2022-12-08T13:04:56;8.60;97.00
39621;DHT22;25309;48.686;9.170;2022-12-08T13:07:27;8.50;96.40
39621;DHT22;25309;48.686;9.170;2022-12-08T13:09:59;8.40;96.50
39621;DHT22;25309;48.686;9.170;2022-12-08T13:12:27;8.30;96.40
39621;DHT22;25309;48.686;9.170;2022-12-08T13:14:59;8.30;96.90
39621;DHT22;25309;48.686;9.170;2022-12-08T13:17:30;8.30;96.70
39621;DHT22;25309;48.686;9.170;2022-12-08T13:20:00;8.40;96.80
39621;DHT22;25309;48.686;9.170;2022-12-08T13:23:11;8.40;96.50
39621;DHT22;25309;48.686;9.170;2022-12-08T13:25:48;8.40;96.40
39621;DHT22;25309;48.686;9.170;2022-12-08T13:28:21;8.40;96.30
39621;DHT22;25309;48.686;9.170;2022-12-08T13:30:49;8.30;96.50
39621;DHT22;25309;48.686;9.170;2022-12-08T13:33:22;8.20;96.30
39621;DHT22;25309;48.686;9.170;2022-12-08T13:36:17;8.10;96.80
39621;DHT22;25309;48.686;9.170;2022-12-08T13:38:51;7.90;96.70
39621;DHT22;25309;48.686;9.170;2022-12-08T13:41:22;8.00;96.60
39621;DHT22;25309;48.686;9.170;2022-12-08T13:43:53;7.90;96.30
39621;DHT22;25309;48.686;9.170;2022-12-08T13:46:42;7.60;95.80
39621;DHT22;25309;48.686;9.170;2022-12-08T13:49:34;7.20;96.40
39621;DHT22;25309;48.686;9.170;2022-12-08T13:52:31;6.90;97.40
39621;DHT22;25309;48.686;9.170;2022-12-08T13:55:24;7.00;97.70
39621;DHT22;25309;48.686;9.170;2022-12-08T13:58:18;7.00;97.70
39621;DHT22;25309;48.686;9.170;2022-12-08T14:01:04;6.90;97.70
39621;DHT22;25309;48.686;9.170;2022-12-08T14:03:38;6.90;97.90
39621;DHT22;25309;48.686;9.170;2022-12-08T14:06:34;6.80;97.60
39621;DHT22;25309;48.686;9.170;2022-12-08T14:09:04;6.40;98.10
39621;DHT22;25309;48.686;9.170;2022-12-08T14:11:40;6.10;98.80
39621;DHT22;25309;48.686;9.170;2022-12-08T14:14:14;5.90;99.10
39621;DHT22;25309;48.686;9.170;2022-12-08T14:17:03;5.70;99.30
39621;DHT22;25309;48.686;9.170;2022-12-08T14:19:32;5.60;99.70
39621;DHT22;25309;48.686;9.170;2022-12-08T14:22:02;5.60;99.90
39621;DHT22;25309;48.686;9.170;2022-12-08T14:24:32;5.60;99.60
39621;DHT22;25309;48.686;9.170;2022-12-08T14:27:01;5.60;99.80
39621;DHT22;25309;48.686;9.170;2022-12-08T14:29:40;5.60;99.70
39621;DHT22;25309;48.686;9.170;2022-12-08T14:32:28;5.50;99.90
39621;DHT22;25309;48.686;9.170;2022-12-08T14:34:59;5.50;99.80
39621;DHT22;25309;48.686;9.170;2022-12-08T14:37:29;5.40;99.90
39621;DHT22;25309;48.686;9.170;2022-12-08T14:39:59;5.20;99.90
39621;DHT22;25309;48.686;9.170;2022-12-08T14:42:29;5.10;99.90
39621;DHT22;25309;48.686;9.170;2022-12-08T14:45:00;5.00;99.90
39621;DHT22;25309;48.686;9.170;2022-12-08T14:47:29;5.00;99.90
39621;DHT22;25309;48.686;9.170;2022-12-08T14:49:56;4.90;99.90
39621;DHT22;25309;48.686;9.170;2022-12-08T14:52:24;4.90;99.90
39621;DHT22;25309;48.686;9.170;2022-12-08T14:54:53;4.80;99.90
39621;DHT22;25309;48.686;9.170;2022-12-08T14:57:21;4.70;99.90
39621;DHT22;25309;48.686;9.170;2022-12-08T14:59:49;4.60;99.90
39621;DHT22;25309;48.686;9.170;2022-12-08T15:02:26;4.60;99.90
39621;DHT22;25309;48.686;9.170;2022-12-08T15:04:57;4.50;99.90
39621;DHT22;25309;48.686;9.170;2022-12-08T15:07:27;4.50;99.90
39621;DHT22;25309;48.686;9.170;2022-12-08T15:10:19;4.50;99.90
39621;DHT22;25309;48.686;9.170;2022-12-08T15:12:58;4.60;99.90
39621;DHT22;25309;48.686;9.170;2022-12-08T15:15:28;4.70;99.90
39621;DHT22;25309;48.686;9.170;2022-12-08T15:18:03;4.70;99.90
39621;DHT22;25309;48.686;9.170;2022-12-08T15:20:39;4.60;99.90
39621;DHT22;25309;48.686;9.170;2022-12-08T15:23:19;4.50;99.90
39621;DHT22;25309;48.686;9.170;2022-12-08T15:25:47;4.50;99.90
39621;DHT22;25309;48.686;9.170;2022-12-08T15:28:16;4.50;99.90
39621;DHT22;25309;48.686;9.170;2022-12-08T15:30:45;4.60;99.90
39621;DHT22;25309;48.686;9.170;2022-12-08T15:33:12;4.60;99.90
39621;DHT22;25309;48.686;9.170;2022-12-08T15:35:39;4.50;99.90
39621;DHT22;25309;48.686;9.170;2022-12-08T15:38:16;4.50;99.90
39621;DHT22;25309;48.686;9.170;2022-12-08T15:40:44;4.40;99.90
39621;DHT22;25309;48.686;9.170;2022-12-08T15:43:11;4.40;99.90
39621;DHT22;25309;48.686;9.170;2022-12-08T15:45:38;4.40;99.90
39621;DHT22;25309;48.686;9.170;2022-12-08T15:48:23;4.20;99.90
39621;DHT22;25309;48.686;9.170;2022-12-08T15:50:52;4.20;99.90
39621;DHT22;25309;48.686;9.170;2022-12-08T15:53:19;4.20;99.90
39621;DHT22;25309;48.686;9.170;2022-12-08T15:55:47;4.20;99.90
39621;DHT22;25309;48.686;9.170;2022-12-08T15:58:35;4.20;99.90
39621;DHT22;25309;48.686;9.170;2022-12-08T16:01:20;4.20;99.90
39621;DHT22;25309;48.686;9.170;2022-12-08T16:03:48;4.20;99.90
39621;DHT22;25309;48.686;9.170;2022-12-08T16:06:36;4.10;99.90
39621;DHT22;25309;48.686;9.170;2022-12-08T16:09:33;4.10;99.90
39621;DHT22;25309;48.686;9.170;2022-12-08T16:12:02;4.00;99.90
39621;DHT22;25309;48.686;9.170;2022-12-08T16:14:47;4.00;99.90
39621;DHT22;25309;48.686;9.170;2022-12-08T16:17:35;4.00;99.90
39621;DHT22;25309;48.686;9.170;2022-12-08T16:20:05;4.00;99.90
39621;DHT22;25309;48.686;9.170;2022-12-08T16:22:36;4.10;99.90